sensor_id;sensor_type;location;lat;lon;timestamp;P1;durP1;ratioP1;P2;durP2;ratioP2
40955;SDS011;26687;48.254;11.454;2022-12-07T00:00:46;6.07;;;5.57;;
40955;SDS011;26687;48.254;11.454;2022-12-07T00:03:47;6.50;;;5.90;;
40955;SDS011;26687;48.254;11.454;2022-12-07T00:06:50;6.40;;;5.90;;
40955;SDS011;26687;48.254;11.454;2022-12-07T00:09:50;5.90;;;5.40;;
40955;SDS011;26687;48.254;11.454;2022-12-07T00:12:50;6.13;;;5.63;;
40955;SDS011;26687;48.254;11.454;2022-12-07T00:15:51;6.60;;;6.00;;
40955;SDS011;26687;48.254;11.454;2022-12-07T00:18:51;6.10;;;5.60;;
40955;SDS011;26687;48.254;11.454;2022-12-07T00:21:51;5.83;;;5.27;;
40955;SDS011;26687;48.254;11.454;2022-12-07T00:24:51;6.30;;;5.80;;
40955;SDS011;26687;48.254;11.454;2022-12-07T00:27:52;6.18;;;5.53;;
40955;SDS011;26687;48.254;11.454;2022-12-07T00:30:59;5.95;;;5.45;;
40955;SDS011;26687;48.254;11.454;2022-12-07T00:33:59;6.65;;;6.05;;
40955;SDS011;26687;48.254;11.454;2022-12-07T00:36:59;6.70;;;6.10;;
40955;SDS011;26687;48.254;11.454;2022-12-07T00:39:59;7.00;;;6.40;;
40955;SDS011;26687;48.254;11.454;2022-12-07T00:42:59;6.97;;;6.37;;
40955;SDS011;26687;48.254;11.454;2022-12-07T00:46:00;6.88;;;6.28;;
40955;SDS011;26687;48.254;11.454;2022-12-07T00:49:00;6.63;;;6.03;;
40955;SDS011;26687;48.254;11.454;2022-12-07T00:52:00;6.10;;;5.60;;
40955;SDS011;26687;48.254;11.454;2022-12-07T00:55:00;6.30;;;5.70;;
40955;SDS011;26687;48.254;11.454;2022-12-07T00:58:00;6.43;;;5.83;;
40955;SDS011;26687;48.254;11.454;2022-12-07T01:01:01;6.40;;;5.80;;
40955;SDS011;26687;48.254;11.454;2022-12-07T01:04:02;7.72;;;5.82;;
40955;SDS011;26687;48.254;11.454;2022-12-07T01:07:02;6.13;;;5.63;;
40955;SDS011;26687;48.254;11.454;2022-12-07T01:10:02;5.82;;;5.32;;
40955;SDS011;26687;48.254;11.454;2022-12-07T01:13:02;6.25;;;5.75;;
40955;SDS011;26687;48.254;11.454;2022-12-07T01:16:03;6.68;;;6.07;;
40955;SDS011;26687;48.254;11.454;2022-12-07T01:19:04;6.40;;;5.80;;
40955;SDS011;26687;48.254;11.454;2022-12-07T01:22:04;6.10;;;5.60;;
40955;SDS011;26687;48.254;11.454;2022-12-07T01:25:05;6.93;;;6.22;;
40955;SDS011;26687;48.254;11.454;2022-12-07T01:28:05;6.00;;;5.50;;
40955;SDS011;26687;48.254;11.454;2022-12-07T01:31:15;6.25;;;5.70;;
40955;SDS011;26687;48.254;11.454;2022-12-07T01:34:15;6.18;;;5.65;;
40955;SDS011;26687;48.254;11.454;2022-12-07T01:37:15;6.80;;;6.10;;
40955;SDS011;26687;48.254;11.454;2022-12-07T01:40:16;6.27;;;5.77;;
40955;SDS011;26687;48.254;11.454;2022-12-07T01:43:16;6.43;;;5.83;;
40955;SDS011;26687;48.254;11.454;2022-12-07T01:46:17;6.50;;;5.90;;
40955;SDS011;26687;48.254;11.454;2022-12-07T01:52:19;6.60;;;6.00;;
40955;SDS011;26687;48.254;11.454;2022-12-07T01:55:21;6.53;;;5.93;;
40955;SDS011;26687;48.254;11.454;2022-12-07T01:58:22;6.55;;;6.05;;
40955;SDS011;26687;48.254;11.454;2022-12-07T02:01:23;6.63;;;6.05;;
40955;SDS011;26687;48.254;11.454;2022-12-07T02:04:23;5.90;;;5.40;;
40955;SDS011;26687;48.254;11.454;2022-12-07T02:07:23;6.13;;;5.63;;
40955;SDS011;26687;48.254;11.454;2022-12-07T02:10:25;6.18;;;5.57;;
40955;SDS011;26687;48.254;11.454;2022-12-07T02:13:26;5.63;;;5.13;;
40955;SDS011;26687;48.254;11.454;2022-12-07T02:19:39;6.43;;;5.80;;
40955;SDS011;26687;48.254;11.454;2022-12-07T02:32:15;6.65;;;6.05;;
40955;SDS011;26687;48.254;11.454;2022-12-07T02:41:43;6.32;;;5.72;;
40955;SDS011;26687;48.254;11.454;2022-12-07T02:44:44;6.05;;;5.45;;
40955;SDS011;26687;48.254;11.454;2022-12-07T02:47:45;5.80;;;5.30;;
40955;SDS011;26687;48.254;11.454;2022-12-07T02:50:50;6.05;;;5.55;;
40955;SDS011;26687;48.254;11.454;2022-12-07T02:53:51;5.95;;;5.35;;
40955;SDS011;26687;48.254;11.454;2022-12-07T02:56:53;5.72;;;5.22;;
40955;SDS011;26687;48.254;11.454;2022-12-07T03:03:00;5.93;;;5.40;;
40955;SDS011;26687;48.254;11.454;2022-12-07T03:06:06;6.30;;;5.70;;
40955;SDS011;26687;48.254;11.454;2022-12-07T03:12:16;5.43;;;4.93;;
40955;SDS011;26687;48.254;11.454;2022-12-07T03:15:22;6.30;;;5.80;;
40955;SDS011;26687;48.254;11.454;2022-12-07T03:18:24;5.72;;;5.05;;
40955;SDS011;26687;48.254;11.454;2022-12-07T03:21:26;6.07;;;5.40;;
40955;SDS011;26687;48.254;11.454;2022-12-07T03:24:28;5.57;;;5.07;;
40955;SDS011;26687;48.254;11.454;2022-12-07T03:28:16;6.38;;;5.78;;
40955;SDS011;26687;48.254;11.454;2022-12-07T03:31:00;6.22;;;5.65;;
40955;SDS011;26687;48.254;11.454;2022-12-07T03:34:06;6.20;;;5.60;;
40955;SDS011;26687;48.254;11.454;2022-12-07T03:37:09;6.05;;;5.50;;
40955;SDS011;26687;48.254;11.454;2022-12-07T03:40:19;6.33;;;5.73;;
40955;SDS011;26687;48.254;11.454;2022-12-07T03:43:22;6.13;;;5.63;;
40955;SDS011;26687;48.254;11.454;2022-12-07T03:46:34;6.60;;;6.00;;
40955;SDS011;26687;48.254;11.454;2022-12-07T03:49:43;7.07;;;6.00;;
40955;SDS011;26687;48.254;11.454;2022-12-07T03:52:47;6.82;;;6.22;;
40955;SDS011;26687;48.254;11.454;2022-12-07T03:55:49;6.45;;;5.85;;
40955;SDS011;26687;48.254;11.454;2022-12-07T03:58:50;6.60;;;6.00;;
40955;SDS011;26687;48.254;11.454;2022-12-07T04:01:53;7.40;;;6.70;;
40955;SDS011;26687;48.254;11.454;2022-12-07T04:04:54;6.88;;;6.28;;
40955;SDS011;26687;48.254;11.454;2022-12-07T04:07:54;7.10;;;6.50;;
40955;SDS011;26687;48.254;11.454;2022-12-07T04:10:54;6.43;;;5.83;;
40955;SDS011;26687;48.254;11.454;2022-12-07T04:13:55;6.90;;;6.30;;
40955;SDS011;26687;48.254;11.454;2022-12-07T04:17:13;6.72;;;6.13;;
40955;SDS011;26687;48.254;11.454;2022-12-07T04:20:13;6.67;;;6.07;;
40955;SDS011;26687;48.254;11.454;2022-12-07T04:23:14;7.00;;;6.40;;
40955;SDS011;26687;48.254;11.454;2022-12-07T04:26:14;6.05;;;5.45;;
40955;SDS011;26687;48.254;11.454;2022-12-07T04:29:15;6.27;;;5.67;;
40955;SDS011;26687;48.254;11.454;2022-12-07T04:32:15;6.40;;;5.80;;
40955;SDS011;26687;48.254;11.454;2022-12-07T04:35:15;5.90;;;5.40;;
40955;SDS011;26687;48.254;11.454;2022-12-07T04:38:16;6.10;;;5.50;;
40955;SDS011;26687;48.254;11.454;2022-12-07T04:41:16;6.40;;;5.90;;
40955;SDS011;26687;48.254;11.454;2022-12-07T04:44:16;5.85;;;5.35;;
40955;SDS011;26687;48.254;11.454;2022-12-07T04:47:17;6.35;;;5.75;;
40955;SDS011;26687;48.254;11.454;2022-12-07T04:50:17;5.63;;;5.10;;
40955;SDS011;26687;48.254;11.454;2022-12-07T04:53:17;6.40;;;5.90;;
40955;SDS011;26687;48.254;11.454;2022-12-07T04:56:18;6.00;;;5.47;;
40955;SDS011;26687;48.254;11.454;2022-12-07T04:59:18;6.07;;;5.25;;
40955;SDS011;26687;48.254;11.454;2022-12-07T05:02:18;5.57;;;5.07;;
40955;SDS011;26687;48.254;11.454;2022-12-07T05:05:19;5.18;;;4.72;;
40955;SDS011;26687;48.254;11.454;2022-12-07T05:08:19;5.93;;;5.20;;
40955;SDS011;26687;48.254;11.454;2022-12-07T05:11:19;5.67;;;5.17;;
40955;SDS011;26687;48.254;11.454;2022-12-07T05:14:38;5.88;;;5.38;;
40955;SDS011;26687;48.254;11.454;2022-12-07T05:17:38;6.80;;;6.20;;
40955;SDS011;26687;48.254;11.454;2022-12-07T05:20:39;7.18;;;6.57;;
40955;SDS011;26687;48.254;11.454;2022-12-07T05:23:39;6.90;;;6.30;;
40955;SDS011;26687;48.254;11.454;2022-12-07T05:26:39;7.47;;;6.78;;
40955;SDS011;26687;48.254;11.454;2022-12-07T05:29:39;6.68;;;6.07;;
40955;SDS011;26687;48.254;11.454;2022-12-07T05:32:39;7.97;;;6.57;;
40955;SDS011;26687;48.254;11.454;2022-12-07T05:35:40;7.40;;;6.05;;
40955;SDS011;26687;48.254;11.454;2022-12-07T05:38:40;6.60;;;6.00;;
40955;SDS011;26687;48.254;11.454;2022-12-07T05:41:41;6.40;;;5.80;;
40955;SDS011;26687;48.254;11.454;2022-12-07T05:45:04;6.35;;;5.85;;
40955;SDS011;26687;48.254;11.454;2022-12-07T05:48:05;6.55;;;5.95;;
40955;SDS011;26687;48.254;11.454;2022-12-07T05:51:05;6.78;;;6.18;;
40955;SDS011;26687;48.254;11.454;2022-12-07T05:54:05;7.25;;;6.55;;
40955;SDS011;26687;48.254;11.454;2022-12-07T05:57:05;6.93;;;6.22;;
40955;SDS011;26687;48.254;11.454;2022-12-07T06:00:06;6.37;;;5.77;;
40955;SDS011;26687;48.254;11.454;2022-12-07T06:03:06;7.07;;;6.38;;
40955;SDS011;26687;48.254;11.454;2022-12-07T06:06:06;6.53;;;5.93;;
40955;SDS011;26687;48.254;11.454;2022-12-07T06:09:06;7.33;;;6.73;;
40955;SDS011;26687;48.254;11.454;2022-12-07T06:12:09;7.47;;;6.78;;
40955;SDS011;26687;48.254;11.454;2022-12-07T06:15:27;7.45;;;6.70;;
40955;SDS011;26687;48.254;11.454;2022-12-07T06:18:27;7.07;;;6.38;;
40955;SDS011;26687;48.254;11.454;2022-12-07T06:21:28;7.10;;;6.50;;
40955;SDS011;26687;48.254;11.454;2022-12-07T06:24:28;6.73;;;6.17;;
40955;SDS011;26687;48.254;11.454;2022-12-07T06:27:28;7.67;;;6.97;;
40955;SDS011;26687;48.254;11.454;2022-12-07T06:30:28;7.07;;;6.47;;
40955;SDS011;26687;48.254;11.454;2022-12-07T06:33:29;7.20;;;6.60;;
40955;SDS011;26687;48.254;11.454;2022-12-07T06:36:29;7.05;;;6.45;;
40955;SDS011;26687;48.254;11.454;2022-12-07T06:39:30;6.93;;;6.22;;
40955;SDS011;26687;48.254;11.454;2022-12-07T06:42:30;7.28;;;6.57;;
40955;SDS011;26687;48.254;11.454;2022-12-07T06:45:30;6.80;;;6.20;;
40955;SDS011;26687;48.254;11.454;2022-12-07T06:48:30;6.63;;;6.03;;
40955;SDS011;26687;48.254;11.454;2022-12-07T06:51:31;6.83;;;6.27;;
40955;SDS011;26687;48.254;11.454;2022-12-07T06:54:31;7.53;;;6.82;;
40955;SDS011;26687;48.254;11.454;2022-12-07T06:57:32;7.43;;;6.80;;
40955;SDS011;26687;48.254;11.454;2022-12-07T07:00:32;6.93;;;6.32;;
40955;SDS011;26687;48.254;11.454;2022-12-07T07:03:34;7.57;;;6.88;;
40955;SDS011;26687;48.254;11.454;2022-12-07T07:06:34;7.40;;;6.70;;
40955;SDS011;26687;48.254;11.454;2022-12-07T07:09:35;7.82;;;7.13;;
40955;SDS011;26687;48.254;11.454;2022-12-07T07:12:35;7.32;;;6.72;;
40955;SDS011;26687;48.254;11.454;2022-12-07T07:15:37;6.85;;;6.25;;
40955;SDS011;26687;48.254;11.454;2022-12-07T07:18:37;8.82;;;7.95;;
40955;SDS011;26687;48.254;11.454;2022-12-07T07:21:37;9.82;;;8.82;;
40955;SDS011;26687;48.254;11.454;2022-12-07T07:24:37;10.02;;;9.02;;
40955;SDS011;26687;48.254;11.454;2022-12-07T07:27:38;9.38;;;8.52;;
40955;SDS011;26687;48.254;11.454;2022-12-07T07:30:38;10.23;;;9.25;;
40955;SDS011;26687;48.254;11.454;2022-12-07T07:33:38;10.35;;;8.95;;
40955;SDS011;26687;48.254;11.454;2022-12-07T07:36:38;9.17;;;8.37;;
40955;SDS011;26687;48.254;11.454;2022-12-07T07:39:39;8.65;;;7.93;;
40955;SDS011;26687;48.254;11.454;2022-12-07T07:42:39;9.18;;;8.38;;
40955;SDS011;26687;48.254;11.454;2022-12-07T07:45:39;8.10;;;7.50;;
40955;SDS011;26687;48.254;11.454;2022-12-07T07:48:40;8.60;;;7.90;;
40955;SDS011;26687;48.254;11.454;2022-12-07T07:51:40;8.85;;;8.05;;
40955;SDS011;26687;48.254;11.454;2022-12-07T07:54:40;9.52;;;8.65;;
40955;SDS011;26687;48.254;11.454;2022-12-07T07:57:41;10.50;;;9.50;;
40955;SDS011;26687;48.254;11.454;2022-12-07T08:00:41;9.63;;;8.83;;
40955;SDS011;26687;48.254;11.454;2022-12-07T08:03:41;9.00;;;8.20;;
40955;SDS011;26687;48.254;11.454;2022-12-07T08:06:41;9.48;;;8.57;;
40955;SDS011;26687;48.254;11.454;2022-12-07T08:09:42;9.32;;;8.52;;
40955;SDS011;26687;48.254;11.454;2022-12-07T08:12:42;9.88;;;9.07;;
40955;SDS011;26687;48.254;11.454;2022-12-07T08:16:04;9.35;;;8.55;;
40955;SDS011;26687;48.254;11.454;2022-12-07T08:19:06;9.00;;;8.20;;
40955;SDS011;26687;48.254;11.454;2022-12-07T08:22:06;9.18;;;8.40;;
40955;SDS011;26687;48.254;11.454;2022-12-07T08:25:06;9.07;;;8.27;;
40955;SDS011;26687;48.254;11.454;2022-12-07T08:28:07;9.75;;;8.95;;
40955;SDS011;26687;48.254;11.454;2022-12-07T08:31:16;9.70;;;8.90;;
40955;SDS011;26687;48.254;11.454;2022-12-07T08:34:18;10.30;;;9.30;;
40955;SDS011;26687;48.254;11.454;2022-12-07T08:37:18;9.00;;;8.20;;
40955;SDS011;26687;48.254;11.454;2022-12-07T08:40:18;9.95;;;9.05;;
40955;SDS011;26687;48.254;11.454;2022-12-07T08:43:18;9.82;;;8.93;;
40955;SDS011;26687;48.254;11.454;2022-12-07T08:46:20;9.38;;;8.57;;
40955;SDS011;26687;48.254;11.454;2022-12-07T08:49:22;9.73;;;8.93;;
40955;SDS011;26687;48.254;11.454;2022-12-07T08:52:24;9.60;;;8.80;;
40955;SDS011;26687;48.254;11.454;2022-12-07T08:55:24;10.27;;;9.38;;
40955;SDS011;26687;48.254;11.454;2022-12-07T08:58:24;9.32;;;8.43;;
40955;SDS011;26687;48.254;11.454;2022-12-07T09:01:25;9.13;;;8.33;;
40955;SDS011;26687;48.254;11.454;2022-12-07T09:04:25;9.57;;;8.77;;
40955;SDS011;26687;48.254;11.454;2022-12-07T09:07:25;9.67;;;8.87;;
40955;SDS011;26687;48.254;11.454;2022-12-07T09:10:26;9.55;;;8.75;;
40955;SDS011;26687;48.254;11.454;2022-12-07T09:13:26;9.73;;;8.93;;
40955;SDS011;26687;48.254;11.454;2022-12-07T09:16:27;9.20;;;8.45;;
40955;SDS011;26687;48.254;11.454;2022-12-07T09:19:27;9.90;;;9.07;;
40955;SDS011;26687;48.254;11.454;2022-12-07T09:22:30;10.00;;;9.10;;
40955;SDS011;26687;48.254;11.454;2022-12-07T09:28:31;9.45;;;8.50;;
40955;SDS011;26687;48.254;11.454;2022-12-07T09:31:31;9.63;;;8.82;;
40955;SDS011;26687;48.254;11.454;2022-12-07T09:34:31;10.05;;;9.15;;
40955;SDS011;26687;48.254;11.454;2022-12-07T09:37:32;9.70;;;8.70;;
40955;SDS011;26687;48.254;11.454;2022-12-07T09:40:35;10.40;;;9.32;;
40955;SDS011;26687;48.254;11.454;2022-12-07T09:43:35;9.33;;;8.57;;
40955;SDS011;26687;48.254;11.454;2022-12-07T09:46:37;10.10;;;9.20;;
40955;SDS011;26687;48.254;11.454;2022-12-07T09:49:38;10.77;;;9.77;;
40955;SDS011;26687;48.254;11.454;2022-12-07T09:52:38;9.50;;;8.70;;
40955;SDS011;26687;48.254;11.454;2022-12-07T09:55:38;9.50;;;8.68;;
40955;SDS011;26687;48.254;11.454;2022-12-07T09:58:40;9.60;;;8.60;;
40955;SDS011;26687;48.254;11.454;2022-12-07T10:01:41;10.10;;;9.10;;
40955;SDS011;26687;48.254;11.454;2022-12-07T10:04:41;9.15;;;8.35;;
40955;SDS011;26687;48.254;11.454;2022-12-07T10:07:43;8.70;;;8.00;;
40955;SDS011;26687;48.254;11.454;2022-12-07T10:10:44;9.37;;;8.60;;
40955;SDS011;26687;48.254;11.454;2022-12-07T10:13:46;9.02;;;8.13;;
40955;SDS011;26687;48.254;11.454;2022-12-07T10:16:48;8.52;;;7.78;;
40955;SDS011;26687;48.254;11.454;2022-12-07T10:19:48;9.00;;;8.20;;
40955;SDS011;26687;48.254;11.454;2022-12-07T10:22:59;9.20;;;8.40;;
40955;SDS011;26687;48.254;11.454;2022-12-07T10:26:03;9.77;;;8.88;;
40955;SDS011;26687;48.254;11.454;2022-12-07T10:29:20;8.68;;;7.93;;
40955;SDS011;26687;48.254;11.454;2022-12-07T10:32:34;9.27;;;7.75;;
40955;SDS011;26687;48.254;11.454;2022-12-07T10:35:35;8.50;;;7.80;;
40955;SDS011;26687;48.254;11.454;2022-12-07T10:38:50;8.38;;;7.57;;
40955;SDS011;26687;48.254;11.454;2022-12-07T10:45:09;7.90;;;7.13;;
40955;SDS011;26687;48.254;11.454;2022-12-07T10:48:18;7.40;;;6.80;;
40955;SDS011;26687;48.254;11.454;2022-12-07T10:51:24;7.32;;;6.72;;
40955;SDS011;26687;48.254;11.454;2022-12-07T10:58:31;7.15;;;6.55;;
40955;SDS011;26687;48.254;11.454;2022-12-07T11:01:05;7.20;;;6.50;;
40955;SDS011;26687;48.254;11.454;2022-12-07T11:07:15;6.43;;;5.90;;
40955;SDS011;26687;48.254;11.454;2022-12-07T11:10:20;6.57;;;5.97;;
40955;SDS011;26687;48.254;11.454;2022-12-07T11:13:27;7.05;;;6.35;;
40955;SDS011;26687;48.254;11.454;2022-12-07T11:20:01;7.43;;;6.72;;
40955;SDS011;26687;48.254;11.454;2022-12-07T11:32:49;7.50;;;6.88;;
40955;SDS011;26687;48.254;11.454;2022-12-07T11:36:02;7.60;;;7.00;;
40955;SDS011;26687;48.254;11.454;2022-12-07T11:39:15;7.38;;;6.78;;
40955;SDS011;26687;48.254;11.454;2022-12-07T11:42:59;7.45;;;6.72;;
40955;SDS011;26687;48.254;11.454;2022-12-07T11:45:41;7.63;;;6.93;;
40955;SDS011;26687;48.254;11.454;2022-12-07T11:48:43;7.40;;;6.80;;
40955;SDS011;26687;48.254;11.454;2022-12-07T11:51:45;7.85;;;7.15;;
40955;SDS011;26687;48.254;11.454;2022-12-07T11:54:49;7.43;;;6.82;;
40955;SDS011;26687;48.254;11.454;2022-12-07T11:57:52;9.35;;;8.10;;
40955;SDS011;26687;48.254;11.454;2022-12-07T12:00:55;8.57;;;7.78;;
40955;SDS011;26687;48.254;11.454;2022-12-07T12:04:07;8.13;;;7.32;;
40955;SDS011;26687;48.254;11.454;2022-12-07T12:07:15;8.00;;;7.32;;
40955;SDS011;26687;48.254;11.454;2022-12-07T12:23:19;8.23;;;7.43;;
40955;SDS011;26687;48.254;11.454;2022-12-07T12:26:21;8.13;;;7.30;;
40955;SDS011;26687;48.254;11.454;2022-12-07T12:29:24;8.15;;;7.45;;
40955;SDS011;26687;48.254;11.454;2022-12-07T12:32:35;7.10;;;6.47;;
40955;SDS011;26687;48.254;11.454;2022-12-07T12:35:36;7.78;;;7.00;;
40955;SDS011;26687;48.254;11.454;2022-12-07T12:38:48;8.27;;;7.20;;
40955;SDS011;26687;48.254;11.454;2022-12-07T12:45:17;7.78;;;7.07;;
40955;SDS011;26687;48.254;11.454;2022-12-07T12:48:28;7.47;;;6.88;;
40955;SDS011;26687;48.254;11.454;2022-12-07T12:51:38;7.20;;;6.50;;
40955;SDS011;26687;48.254;11.454;2022-12-07T12:54:59;7.78;;;7.07;;
40955;SDS011;26687;48.254;11.454;2022-12-07T13:01:35;7.70;;;7.00;;
40955;SDS011;26687;48.254;11.454;2022-12-07T13:04:48;7.95;;;7.25;;
40955;SDS011;26687;48.254;11.454;2022-12-07T13:13:52;7.32;;;6.72;;
40955;SDS011;26687;48.254;11.454;2022-12-07T13:16:52;7.47;;;6.88;;
40955;SDS011;26687;48.254;11.454;2022-12-07T13:19:55;7.47;;;6.77;;
40955;SDS011;26687;48.254;11.454;2022-12-07T13:22:57;7.47;;;6.78;;
40955;SDS011;26687;48.254;11.454;2022-12-07T13:26:00;7.03;;;6.43;;
40955;SDS011;26687;48.254;11.454;2022-12-07T13:32:21;7.60;;;6.90;;
40955;SDS011;26687;48.254;11.454;2022-12-07T13:35:30;7.18;;;6.47;;
40955;SDS011;26687;48.254;11.454;2022-12-07T13:38:34;6.75;;;6.15;;
40955;SDS011;26687;48.254;11.454;2022-12-07T13:41:36;7.53;;;6.82;;
40955;SDS011;26687;48.254;11.454;2022-12-07T13:44:41;7.10;;;6.50;;
40955;SDS011;26687;48.254;11.454;2022-12-07T13:47:43;7.07;;;6.47;;
40955;SDS011;26687;48.254;11.454;2022-12-07T13:50:54;7.18;;;6.50;;
40955;SDS011;26687;48.254;11.454;2022-12-07T13:53:55;7.18;;;6.47;;
40955;SDS011;26687;48.254;11.454;2022-12-07T13:56:59;7.07;;;6.47;;
40955;SDS011;26687;48.254;11.454;2022-12-07T13:59:59;7.10;;;6.40;;
40955;SDS011;26687;48.254;11.454;2022-12-07T14:03:03;6.97;;;6.38;;
40955;SDS011;26687;48.254;11.454;2022-12-07T14:06:18;6.57;;;5.97;;
40955;SDS011;26687;48.254;11.454;2022-12-07T14:09:20;6.93;;;6.25;;
40955;SDS011;26687;48.254;11.454;2022-12-07T14:12:23;6.40;;;5.80;;
40955;SDS011;26687;48.254;11.454;2022-12-07T14:15:24;6.82;;;6.20;;
40955;SDS011;26687;48.254;11.454;2022-12-07T14:18:26;6.88;;;6.28;;
40955;SDS011;26687;48.254;11.454;2022-12-07T14:21:28;7.47;;;6.78;;
40955;SDS011;26687;48.254;11.454;2022-12-07T14:24:28;6.28;;;5.78;;
40955;SDS011;26687;48.254;11.454;2022-12-07T14:27:32;7.95;;;7.00;;
40955;SDS011;26687;48.254;11.454;2022-12-07T14:30:36;7.93;;;6.10;;
40955;SDS011;26687;48.254;11.454;2022-12-07T14:33:36;7.23;;;6.53;;
40955;SDS011;26687;48.254;11.454;2022-12-07T14:36:36;7.35;;;6.60;;
40955;SDS011;26687;48.254;11.454;2022-12-07T14:39:37;7.20;;;6.60;;
40955;SDS011;26687;48.254;11.454;2022-12-07T14:42:37;7.33;;;6.63;;
40955;SDS011;26687;48.254;11.454;2022-12-07T14:45:38;7.80;;;7.00;;
40955;SDS011;26687;48.254;11.454;2022-12-07T14:48:39;7.07;;;6.38;;
40955;SDS011;26687;48.254;11.454;2022-12-07T14:51:39;7.43;;;6.67;;
40955;SDS011;26687;48.254;11.454;2022-12-07T14:54:40;7.75;;;7.05;;
40955;SDS011;26687;48.254;11.454;2022-12-07T14:57:41;7.55;;;6.90;;
40955;SDS011;26687;48.254;11.454;2022-12-07T15:00:41;8.70;;;7.90;;
40955;SDS011;26687;48.254;11.454;2022-12-07T15:03:41;7.38;;;6.68;;
40955;SDS011;26687;48.254;11.454;2022-12-07T15:06:42;7.40;;;6.70;;
40955;SDS011;26687;48.254;11.454;2022-12-07T15:09:54;8.13;;;7.32;;
40955;SDS011;26687;48.254;11.454;2022-12-07T15:12:55;11.20;;;8.50;;
40955;SDS011;26687;48.254;11.454;2022-12-07T15:15:55;9.25;;;8.10;;
40955;SDS011;26687;48.254;11.454;2022-12-07T15:18:55;7.35;;;6.65;;
40955;SDS011;26687;48.254;11.454;2022-12-07T15:21:56;7.18;;;6.38;;
40955;SDS011;26687;48.254;11.454;2022-12-07T15:24:57;7.68;;;6.97;;
40955;SDS011;26687;48.254;11.454;2022-12-07T15:27:57;8.55;;;7.43;;
40955;SDS011;26687;48.254;11.454;2022-12-07T15:30:57;7.33;;;6.63;;
40955;SDS011;26687;48.254;11.454;2022-12-07T15:33:57;6.78;;;6.15;;
40955;SDS011;26687;48.254;11.454;2022-12-07T15:36:58;7.50;;;6.80;;
40955;SDS011;26687;48.254;11.454;2022-12-07T15:39:58;8.30;;;7.50;;
40955;SDS011;26687;48.254;11.454;2022-12-07T15:42:58;11.17;;;7.87;;
40955;SDS011;26687;48.254;11.454;2022-12-07T15:45:58;7.80;;;6.95;;
40955;SDS011;26687;48.254;11.454;2022-12-07T15:48:59;8.43;;;7.57;;
40955;SDS011;26687;48.254;11.454;2022-12-07T15:51:59;10.23;;;6.93;;
40955;SDS011;26687;48.254;11.454;2022-12-07T15:55:00;7.40;;;6.67;;
40955;SDS011;26687;48.254;11.454;2022-12-07T15:58:00;7.78;;;7.18;;
40955;SDS011;26687;48.254;11.454;2022-12-07T16:01:01;8.43;;;7.55;;
40955;SDS011;26687;48.254;11.454;2022-12-07T16:04:09;9.18;;;8.27;;
40955;SDS011;26687;48.254;11.454;2022-12-07T16:07:09;8.57;;;7.78;;
40955;SDS011;26687;48.254;11.454;2022-12-07T16:10:11;9.45;;;8.43;;
40955;SDS011;26687;48.254;11.454;2022-12-07T16:13:11;9.73;;;8.70;;
40955;SDS011;26687;48.254;11.454;2022-12-07T16:16:13;8.10;;;7.30;;
40955;SDS011;26687;48.254;11.454;2022-12-07T16:19:14;9.25;;;8.38;;
40955;SDS011;26687;48.254;11.454;2022-12-07T16:22:14;11.20;;;10.10;;
40955;SDS011;26687;48.254;11.454;2022-12-07T16:25:14;9.25;;;8.35;;
40955;SDS011;26687;48.254;11.454;2022-12-07T16:28:15;10.68;;;9.55;;
40955;SDS011;26687;48.254;11.454;2022-12-07T16:31:16;11.57;;;10.27;;
40955;SDS011;26687;48.254;11.454;2022-12-07T16:34:16;10.15;;;9.15;;
40955;SDS011;26687;48.254;11.454;2022-12-07T16:37:17;9.43;;;8.43;;
40955;SDS011;26687;48.254;11.454;2022-12-07T16:40:17;10.10;;;9.10;;
40955;SDS011;26687;48.254;11.454;2022-12-07T16:43:17;9.93;;;8.93;;
40955;SDS011;26687;48.254;11.454;2022-12-07T16:46:17;10.07;;;9.07;;
40955;SDS011;26687;48.254;11.454;2022-12-07T16:49:18;10.40;;;9.30;;
40955;SDS011;26687;48.254;11.454;2022-12-07T16:52:19;11.75;;;10.55;;
40955;SDS011;26687;48.254;11.454;2022-12-07T16:55:19;12.13;;;10.80;;
40955;SDS011;26687;48.254;11.454;2022-12-07T16:58:20;11.80;;;10.33;;
40955;SDS011;26687;48.254;11.454;2022-12-07T17:01:20;11.87;;;9.97;;
40955;SDS011;26687;48.254;11.454;2022-12-07T17:04:23;12.15;;;10.95;;
40955;SDS011;26687;48.254;11.454;2022-12-07T17:07:24;13.15;;;10.40;;
40955;SDS011;26687;48.254;11.454;2022-12-07T17:10:24;11.95;;;10.82;;
40955;SDS011;26687;48.254;11.454;2022-12-07T17:13:25;11.52;;;10.32;;
40955;SDS011;26687;48.254;11.454;2022-12-07T17:16:43;12.48;;;10.02;;
40955;SDS011;26687;48.254;11.454;2022-12-07T17:19:44;12.90;;;11.77;;
40955;SDS011;26687;48.254;11.454;2022-12-07T17:22:44;14.63;;;12.03;;
40955;SDS011;26687;48.254;11.454;2022-12-07T17:25:45;13.15;;;11.70;;
40955;SDS011;26687;48.254;11.454;2022-12-07T17:28:45;13.07;;;11.13;;
40955;SDS011;26687;48.254;11.454;2022-12-07T17:31:46;13.88;;;12.38;;
40955;SDS011;26687;48.254;11.454;2022-12-07T17:34:46;13.68;;;12.27;;
40955;SDS011;26687;48.254;11.454;2022-12-07T17:37:46;13.83;;;12.50;;
40955;SDS011;26687;48.254;11.454;2022-12-07T17:40:47;13.67;;;12.30;;
40955;SDS011;26687;48.254;11.454;2022-12-07T17:43:47;14.77;;;13.17;;
40955;SDS011;26687;48.254;11.454;2022-12-07T17:46:48;15.30;;;13.77;;
40955;SDS011;26687;48.254;11.454;2022-12-07T17:49:49;16.17;;;13.85;;
40955;SDS011;26687;48.254;11.454;2022-12-07T17:52:49;15.23;;;13.70;;
40955;SDS011;26687;48.254;11.454;2022-12-07T17:56:08;18.77;;;16.88;;
40955;SDS011;26687;48.254;11.454;2022-12-07T17:59:08;20.15;;;17.27;;
40955;SDS011;26687;48.254;11.454;2022-12-07T18:02:08;18.60;;;16.60;;
40955;SDS011;26687;48.254;11.454;2022-12-07T18:05:09;19.52;;;17.50;;
40955;SDS011;26687;48.254;11.454;2022-12-07T18:08:10;18.08;;;16.38;;
40955;SDS011;26687;48.254;11.454;2022-12-07T18:11:10;17.87;;;16.10;;
40955;SDS011;26687;48.254;11.454;2022-12-07T18:14:10;18.83;;;16.73;;
40955;SDS011;26687;48.254;11.454;2022-12-07T18:17:11;17.38;;;15.68;;
40955;SDS011;26687;48.254;11.454;2022-12-07T18:20:11;19.02;;;16.60;;
40955;SDS011;26687;48.254;11.454;2022-12-07T18:23:11;17.83;;;16.02;;
40955;SDS011;26687;48.254;11.454;2022-12-07T18:26:13;16.23;;;14.02;;
40955;SDS011;26687;48.254;11.454;2022-12-07T18:29:15;15.98;;;13.75;;
40955;SDS011;26687;48.254;11.454;2022-12-07T18:32:15;14.68;;;13.27;;
40955;SDS011;26687;48.254;11.454;2022-12-07T18:35:15;17.10;;;13.73;;
40955;SDS011;26687;48.254;11.454;2022-12-07T18:38:16;16.38;;;14.77;;
40955;SDS011;26687;48.254;11.454;2022-12-07T18:41:16;14.70;;;13.27;;
40955;SDS011;26687;48.254;11.454;2022-12-07T18:44:17;16.63;;;14.82;;
40955;SDS011;26687;48.254;11.454;2022-12-07T18:47:17;15.45;;;13.85;;
40955;SDS011;26687;48.254;11.454;2022-12-07T18:50:17;17.43;;;14.77;;
40955;SDS011;26687;48.254;11.454;2022-12-07T18:53:17;16.23;;;14.53;;
40955;SDS011;26687;48.254;11.454;2022-12-07T18:56:18;14.15;;;12.75;;
40955;SDS011;26687;48.254;11.454;2022-12-07T18:59:19;14.90;;;13.38;;
40955;SDS011;26687;48.254;11.454;2022-12-07T19:02:37;15.18;;;12.80;;
40955;SDS011;26687;48.254;11.454;2022-12-07T19:05:38;14.77;;;13.07;;
40955;SDS011;26687;48.254;11.454;2022-12-07T19:08:38;14.95;;;12.75;;
40955;SDS011;26687;48.254;11.454;2022-12-07T19:11:38;15.05;;;13.18;;
40955;SDS011;26687;48.254;11.454;2022-12-07T19:14:50;14.50;;;13.00;;
40955;SDS011;26687;48.254;11.454;2022-12-07T19:17:51;14.10;;;12.50;;
40955;SDS011;26687;48.254;11.454;2022-12-07T19:20:51;14.53;;;13.03;;